Dost 1 — TCPI — position and weather

sailwx.info

Track history (hours):
 
Tides and Currents Weather Stations Pressure Air Temp Water Temp Dewpoint Dewpoint Depression Visibility Wind Speed Wind Dir Waves Ship Positions

Dost 1

Last reported at 2014-Sep-30 05:12 UTC. Time now 2014-Oct-02 00:36 UTC.
Position N 38°11' E 024°07'.

Length 115 m; draft 6.2 m.

Type: Cargo ship. MMSI: 271000303.

Date/timePositionNaut miles runAvg speedWind from/ knotsBaromVisibWave heightAir tempDewpointWater temp
2014-Sep-30 05:12N 38°11' E 024°07'710.8
2014-Sep-30 04:33N 38°05' E 024°11'25 7.5
2014-Sep-30 01:14N 38°10' E 024°42'25810.9
2014-Sep-29 01:33N 40°58' E 028°56'1 0.8
2014-Sep-29 00:32N 40°58' E 028°57'43011.6
2014-Sep-27 11:31N 44°29' E 037°27'1212.0
2014-Sep-27 10:33N 44°33' E 037°42'9 9.2
2014-Sep-27 09:33N 44°41' E 037°50'4 3.6
2014-Sep-27 08:33N 44°44' E 037°47'0 0.0
2014-Sep-27 07:29N 44°44' E 037°47'0 0.0
2014-Sep-27 06:32N 44°44' E 037°47'0 0.0
2014-Sep-27 05:31N 44°44' E 037°47'0 0.0
2014-Sep-27 04:33N 44°44' E 037°47'0 0.0
2014-Sep-27 03:31N 44°44' E 037°47'0 0.0
2014-Sep-27 02:33N 44°44' E 037°47'0 0.0
2014-Sep-27 01:33N 44°44' E 037°47'0 0.0
2014-Sep-27 00:33N 44°44' E 037°47'0 0.0
2014-Sep-26 23:32N 44°44' E 037°47'0 0.0
2014-Sep-26 22:33N 44°44' E 037°47'0 0.0
2014-Sep-26 21:31N 44°44' E 037°47'0 0.0
2014-Sep-26 20:31N 44°44' E 037°47'0 0.0
2014-Sep-26 19:34N 44°44' E 037°47'0 0.0
2014-Sep-26 18:33N 44°44' E 037°47'0 0.0
2014-Sep-26 17:30N 44°44' E 037°47'0 0.0
2014-Sep-26 16:32N 44°44' E 037°47'0 0.0
2014-Sep-26 15:29N 44°44' E 037°47'0 0.0
2014-Sep-26 14:31N 44°44' E 037°47'0 0.0
2014-Sep-26 13:31N 44°44' E 037°47'0 0.0
2014-Sep-26 12:33N 44°44' E 037°47'0 0.0
2014-Sep-26 11:33N 44°44' E 037°47'0 0.0
2014-Sep-26 10:33N 44°44' E 037°47'0 0.0
2014-Sep-26 09:32N 44°44' E 037°47'0 0.0
2014-Sep-26 08:29N 44°44' E 037°47'0 0.0
2014-Sep-26 07:31N 44°44' E 037°47'0 0.0
2014-Sep-26 06:31N 44°44' E 037°47'0 0.0
2014-Sep-26 05:33N 44°44' E 037°47'0 0.0
2014-Sep-26 04:33N 44°44' E 037°47'0 0.0
2014-Sep-26 03:33N 44°44' E 037°47'0 0.0
2014-Sep-26 02:32N 44°44' E 037°47'0 0.0
2014-Sep-26 01:32N 44°44' E 037°47'0 0.0
2014-Sep-26 00:32N 44°44' E 037°47'0 0.0
2014-Sep-25 23:31N 44°44' E 037°47'0 0.0
2014-Sep-25 22:33N 44°44' E 037°47'0 0.0
2014-Sep-25 21:33N 44°44' E 037°47'0 0.2
2014-Sep-25 20:33N 44°44' E 037°47'0 0.0
2014-Sep-25 19:32N 44°44' E 037°47'0 0.0
2014-Sep-25 18:32N 44°44' E 037°47'0 0.0
2014-Sep-25 17:31N 44°44' E 037°47'0 0.0
2014-Sep-25 16:31N 44°44' E 037°47'0 0.0
2014-Sep-25 15:33N 44°44' E 037°47'0 0.0
2014-Sep-25 14:33N 44°44' E 037°47'0 0.0
2014-Sep-25 13:33N 44°44' E 037°47'0 0.0
2014-Sep-25 12:32N 44°44' E 037°47'0 0.0
2014-Sep-25 11:32N 44°44' E 037°47'0 0.0
2014-Sep-25 10:28N 44°44' E 037°47'0 0.0
2014-Sep-25 09:33N 44°44' E 037°47'0 0.0
2014-Sep-25 08:33N 44°44' E 037°47'0 0.0
2014-Sep-25 07:33N 44°44' E 037°47'0 0.0
2014-Sep-25 06:28N 44°44' E 037°47'0 0.0
2014-Sep-25 05:31N 44°44' E 037°47'0 0.0
2014-Sep-25 04:33N 44°44' E 037°47'0 0.0
2014-Sep-25 03:33N 44°44' E 037°47'0 0.0
2014-Sep-25 02:31N 44°44' E 037°47'0 0.0
2014-Sep-25 01:33N 44°44' E 037°47'0 0.0
2014-Sep-25 00:33N 44°44' E 037°47'0 0.0
2014-Sep-24 23:32N 44°44' E 037°47'0 0.0
2014-Sep-24 22:32N 44°44' E 037°47'0 0.0
2014-Sep-24 21:31N 44°44' E 037°47'0 0.0
2014-Sep-24 20:31N 44°44' E 037°47'0 0.0
2014-Sep-24 19:30N 44°44' E 037°47'0 0.0
2014-Sep-24 18:33N 44°44' E 037°47'0 0.0
2014-Sep-24 17:33N 44°44' E 037°47'0 0.0
2014-Sep-24 16:32N 44°44' E 037°47'0 0.1
2014-Sep-24 15:33N 44°44' E 037°47'3 3.3
2014-Sep-24 14:34N 44°41' E 037°50'0 0.1
2014-Sep-24 13:32N 44°41' E 037°50'0 0.0
2014-Sep-24 12:30N 44°41' E 037°50'0 0.0
2014-Sep-24 11:32N 44°41' E 037°50'0 0.0
2014-Sep-24 10:33N 44°41' E 037°50'0 0.0
2014-Sep-24 09:33N 44°41' E 037°50'0 0.0
2014-Sep-24 08:34N 44°41' E 037°50'0 0.0
2014-Sep-24 07:33N 44°41' E 037°50'0 0.0
2014-Sep-24 06:33N 44°41' E 037°50'0 0.0
2014-Sep-24 05:33N 44°41' E 037°50'0 0.0
2014-Sep-24 04:33N 44°41' E 037°50'0 0.0
2014-Sep-24 03:33N 44°41' E 037°50'0 0.0
2014-Sep-24 02:31N 44°41' E 037°50'0 0.0
2014-Sep-24 01:32N 44°41' E 037°50'0 0.1
2014-Sep-24 00:32N 44°41' E 037°50'0 0.0
2014-Sep-23 23:33N 44°41' E 037°50'0 0.0
2014-Sep-23 22:33N 44°41' E 037°50'0 0.1
2014-Sep-23 21:33N 44°41' E 037°50'0 0.1
2014-Sep-23 20:32N 44°41' E 037°49'0 0.1
2014-Sep-23 19:33N 44°41' E 037°49'0 0.0
2014-Sep-23 18:32N 44°41' E 037°49'0 0.0
2014-Sep-23 17:32N 44°41' E 037°49'0 0.0
2014-Sep-23 16:31N 44°41' E 037°49'0 0.0
2014-Sep-23 15:32N 44°41' E 037°50'0 0.1
2014-Sep-23 14:32N 44°41' E 037°49'0 0.1
2014-Sep-23 13:31N 44°41' E 037°49'0 0.0
2014-Sep-23 12:31N 44°41' E 037°49'0 0.0
2014-Sep-23 11:33N 44°41' E 037°49'4 3.9
2014-Sep-23 10:33N 44°37' E 037°51'4 4.5
2014-Sep-23 09:33N 44°34' E 037°56'1 1.2
2014-Sep-23 08:28N 44°35' E 037°57'0 0.0
2014-Sep-23 07:31N 44°35' E 037°57'0 0.0
2014-Sep-23 06:30N 44°35' E 037°57'0 0.0
2014-Sep-23 05:33N 44°35' E 037°57'0 0.1
2014-Sep-23 04:32N 44°35' E 037°57'0 0.0
2014-Sep-23 03:32N 44°35' E 037°57'0 0.0
2014-Sep-23 02:31N 44°35' E 037°57'0 0.0
2014-Sep-23 01:31N 44°35' E 037°57'0 0.0
2014-Sep-23 00:31N 44°35' E 037°57'0 0.0
2014-Sep-22 23:33N 44°35' E 037°57'0 0.0
2014-Sep-22 22:33N 44°35' E 037°57'0 0.0
2014-Sep-22 21:32N 44°35' E 037°57'0 0.0
2014-Sep-22 20:32N 44°35' E 037°57'0 0.0
2014-Sep-22 19:31N 44°35' E 037°57'0 0.0
2014-Sep-22 18:31N 44°35' E 037°57'0 0.0
2014-Sep-22 17:31N 44°35' E 037°57'0 0.0
2014-Sep-22 16:33N 44°35' E 037°57'0 0.0
2014-Sep-22 15:27N 44°35' E 037°57'0 0.0
2014-Sep-22 14:32N 44°35' E 037°57'0 0.0
2014-Sep-22 13:32N 44°35' E 037°57'0 0.0
2014-Sep-22 12:31N 44°35' E 037°57'0 0.0
2014-Sep-22 11:31N 44°35' E 037°57'0 0.0
2014-Sep-22 10:31N 44°35' E 037°57'0 0.0
2014-Sep-22 09:32N 44°35' E 037°57'0 0.0
2014-Sep-22 08:28N 44°35' E 037°57'0 0.0
2014-Sep-22 07:31N 44°35' E 037°57'0 0.0
2014-Sep-22 06:31N 44°35' E 037°57'0 0.0
2014-Sep-22 05:33N 44°35' E 037°57'0 0.0
2014-Sep-22 04:33N 44°35' E 037°57'0 0.0
2014-Sep-22 03:32N 44°35' E 037°57'0 0.0
2014-Sep-22 02:32N 44°35' E 037°57'0 0.0
2014-Sep-22 01:31N 44°35' E 037°57'0 0.0
2014-Sep-22 00:31N 44°35' E 037°57'0 0.0
2014-Sep-21 23:34N 44°35' E 037°57'0 0.0
2014-Sep-21 22:33N 44°35' E 037°57'0 0.0
2014-Sep-21 21:33N 44°35' E 037°57'0 0.0
2014-Sep-21 20:32N 44°35' E 037°57'0 0.0
2014-Sep-21 19:32N 44°35' E 037°57'0 0.0
2014-Sep-21 18:31N 44°35' E 037°57'0 0.0
2014-Sep-21 17:31N 44°35' E 037°57'0 0.0
2014-Sep-21 16:33N 44°35' E 037°57'0 0.0
2014-Sep-21 15:33N 44°35' E 037°57'0 0.0
2014-Sep-21 14:33N 44°35' E 037°57'0 0.0
2014-Sep-21 13:32N 44°35' E 037°57'0 0.0
2014-Sep-21 12:33N 44°35' E 037°57'0 0.0
2014-Sep-21 11:33N 44°35' E 037°57'0 0.0
2014-Sep-21 10:32N 44°35' E 037°57'0 0.1
2014-Sep-21 09:32N 44°35' E 037°57'0 0.0
2014-Sep-21 08:32N 44°35' E 037°57'0 0.1
2014-Sep-21 07:29N 44°35' E 037°57'0 0.0
2014-Sep-21 06:31N 44°35' E 037°57'0 0.0
2014-Sep-21 05:28N 44°35' E 037°57'0 0.0
2014-Sep-21 04:33N 44°35' E 037°57'0 0.0
2014-Sep-21 03:33N 44°35' E 037°57'0 0.0
2014-Sep-21 02:33N 44°35' E 037°57'0 0.0
2014-Sep-21 01:32N 44°35' E 037°57'5 5.1
2014-Sep-21 00:33N 44°32' E 037°52'1312.9
2014-Sep-20 23:32N 44°25' E 037°36'  
Track history (hours):
 
Tides and Currents Weather Stations Pressure Air Temp Water Temp Dewpoint Dewpoint Depression Visibility Wind Speed Wind Dir Waves Ship Positions

Dost 1

Last reported at 2014-Sep-30 05:12 UTC. Time now 2014-Oct-02 00:36 UTC.
Position N 38°11' E 024°07'.

Length 115 m; draft 6.2 m.

Type: Cargo ship. MMSI: 271000303.

Date/timePositionNaut miles runAvg speedWind from/ knotsBaromVisibWave heightAir tempDewpointWater temp
2014-Sep-30 05:12N 38°11' E 024°07'710.8
2014-Sep-30 04:33N 38°05' E 024°11'25 7.5
2014-Sep-30 01:14N 38°10' E 024°42'25810.9
2014-Sep-29 01:33N 40°58' E 028°56'1 0.8
2014-Sep-29 00:32N 40°58' E 028°57'43011.6
2014-Sep-27 11:31N 44°29' E 037°27'1212.0
2014-Sep-27 10:33N 44°33' E 037°42'9 9.2
2014-Sep-27 09:33N 44°41' E 037°50'4 3.6
2014-Sep-27 08:33N 44°44' E 037°47'0 0.0
2014-Sep-27 07:29N 44°44' E 037°47'0 0.0
2014-Sep-27 06:32N 44°44' E 037°47'0 0.0
2014-Sep-27 05:31N 44°44' E 037°47'0 0.0
2014-Sep-27 04:33N 44°44' E 037°47'0 0.0
2014-Sep-27 03:31N 44°44' E 037°47'0 0.0
2014-Sep-27 02:33N 44°44' E 037°47'0 0.0
2014-Sep-27 01:33N 44°44' E 037°47'0 0.0
2014-Sep-27 00:33N 44°44' E 037°47'0 0.0
2014-Sep-26 23:32N 44°44' E 037°47'0 0.0
2014-Sep-26 22:33N 44°44' E 037°47'0 0.0
2014-Sep-26 21:31N 44°44' E 037°47'0 0.0
2014-Sep-26 20:31N 44°44' E 037°47'0 0.0
2014-Sep-26 19:34N 44°44' E 037°47'0 0.0
2014-Sep-26 18:33N 44°44' E 037°47'0 0.0
2014-Sep-26 17:30N 44°44' E 037°47'0 0.0
2014-Sep-26 16:32N 44°44' E 037°47'0 0.0
2014-Sep-26 15:29N 44°44' E 037°47'0 0.0
2014-Sep-26 14:31N 44°44' E 037°47'0 0.0
2014-Sep-26 13:31N 44°44' E 037°47'0 0.0
2014-Sep-26 12:33N 44°44' E 037°47'0 0.0
2014-Sep-26 11:33N 44°44' E 037°47'0 0.0
2014-Sep-26 10:33N 44°44' E 037°47'0 0.0
2014-Sep-26 09:32N 44°44' E 037°47'0 0.0
2014-Sep-26 08:29N 44°44' E 037°47'0 0.0
2014-Sep-26 07:31N 44°44' E 037°47'0 0.0
2014-Sep-26 06:31N 44°44' E 037°47'0 0.0
2014-Sep-26 05:33N 44°44' E 037°47'0 0.0
2014-Sep-26 04:33N 44°44' E 037°47'0 0.0
2014-Sep-26 03:33N 44°44' E 037°47'0 0.0
2014-Sep-26 02:32N 44°44' E 037°47'0 0.0
2014-Sep-26 01:32N 44°44' E 037°47'0 0.0
2014-Sep-26 00:32N 44°44' E 037°47'0 0.0
2014-Sep-25 23:31N 44°44' E 037°47'0 0.0
2014-Sep-25 22:33N 44°44' E 037°47'0 0.0
2014-Sep-25 21:33N 44°44' E 037°47'0 0.2
2014-Sep-25 20:33N 44°44' E 037°47'0 0.0
2014-Sep-25 19:32N 44°44' E 037°47'0 0.0
2014-Sep-25 18:32N 44°44' E 037°47'0 0.0
2014-Sep-25 17:31N 44°44' E 037°47'0 0.0
2014-Sep-25 16:31N 44°44' E 037°47'0 0.0
2014-Sep-25 15:33N 44°44' E 037°47'0 0.0
2014-Sep-25 14:33N 44°44' E 037°47'0 0.0
2014-Sep-25 13:33N 44°44' E 037°47'0 0.0
2014-Sep-25 12:32N 44°44' E 037°47'0 0.0
2014-Sep-25 11:32N 44°44' E 037°47'0 0.0
2014-Sep-25 10:28N 44°44' E 037°47'0 0.0
2014-Sep-25 09:33N 44°44' E 037°47'0 0.0
2014-Sep-25 08:33N 44°44' E 037°47'0 0.0
2014-Sep-25 07:33N 44°44' E 037°47'0 0.0
2014-Sep-25 06:28N 44°44' E 037°47'0 0.0
2014-Sep-25 05:31N 44°44' E 037°47'0 0.0
2014-Sep-25 04:33N 44°44' E 037°47'0 0.0
2014-Sep-25 03:33N 44°44' E 037°47'0 0.0
2014-Sep-25 02:31N 44°44' E 037°47'0 0.0
2014-Sep-25 01:33N 44°44' E 037°47'0 0.0
2014-Sep-25 00:33N 44°44' E 037°47'0 0.0
2014-Sep-24 23:32N 44°44' E 037°47'0 0.0
2014-Sep-24 22:32N 44°44' E 037°47'0 0.0
2014-Sep-24 21:31N 44°44' E 037°47'0 0.0
2014-Sep-24 20:31N 44°44' E 037°47'0 0.0
2014-Sep-24 19:30N 44°44' E 037°47'0 0.0
2014-Sep-24 18:33N 44°44' E 037°47'0 0.0
2014-Sep-24 17:33N 44°44' E 037°47'0 0.0
2014-Sep-24 16:32N 44°44' E 037°47'0 0.1
2014-Sep-24 15:33N 44°44' E 037°47'3 3.3
2014-Sep-24 14:34N 44°41' E 037°50'0 0.1
2014-Sep-24 13:32N 44°41' E 037°50'0 0.0
2014-Sep-24 12:30N 44°41' E 037°50'0 0.0
2014-Sep-24 11:32N 44°41' E 037°50'0 0.0
2014-Sep-24 10:33N 44°41' E 037°50'0 0.0
2014-Sep-24 09:33N 44°41' E 037°50'0 0.0
2014-Sep-24 08:34N 44°41' E 037°50'0 0.0
2014-Sep-24 07:33N 44°41' E 037°50'0 0.0
2014-Sep-24 06:33N 44°41' E 037°50'0 0.0
2014-Sep-24 05:33N 44°41' E 037°50'0 0.0
2014-Sep-24 04:33N 44°41' E 037°50'0 0.0
2014-Sep-24 03:33N 44°41' E 037°50'0 0.0
2014-Sep-24 02:31N 44°41' E 037°50'0 0.0
2014-Sep-24 01:32N 44°41' E 037°50'0 0.1
2014-Sep-24 00:32N 44°41' E 037°50'0 0.0
2014-Sep-23 23:33N 44°41' E 037°50'0 0.0
2014-Sep-23 22:33N 44°41' E 037°50'0 0.1
2014-Sep-23 21:33N 44°41' E 037°50'0 0.1
2014-Sep-23 20:32N 44°41' E 037°49'0 0.1
2014-Sep-23 19:33N 44°41' E 037°49'0 0.0
2014-Sep-23 18:32N 44°41' E 037°49'0 0.0
2014-Sep-23 17:32N 44°41' E 037°49'0 0.0
2014-Sep-23 16:31N 44°41' E 037°49'0 0.0
2014-Sep-23 15:32N 44°41' E 037°50'0 0.1
2014-Sep-23 14:32N 44°41' E 037°49'0 0.1
2014-Sep-23 13:31N 44°41' E 037°49'0 0.0
2014-Sep-23 12:31N 44°41' E 037°49'0 0.0
2014-Sep-23 11:33N 44°41' E 037°49'4 3.9
2014-Sep-23 10:33N 44°37' E 037°51'4 4.5
2014-Sep-23 09:33N 44°34' E 037°56'1 1.2
2014-Sep-23 08:28N 44°35' E 037°57'0 0.0
2014-Sep-23 07:31N 44°35' E 037°57'0 0.0
2014-Sep-23 06:30N 44°35' E 037°57'0 0.0
2014-Sep-23 05:33N 44°35' E 037°57'0 0.1
2014-Sep-23 04:32N 44°35' E 037°57'0 0.0
2014-Sep-23 03:32N 44°35' E 037°57'0 0.0
2014-Sep-23 02:31N 44°35' E 037°57'0 0.0
2014-Sep-23 01:31N 44°35' E 037°57'0 0.0
2014-Sep-23 00:31N 44°35' E 037°57'0 0.0
2014-Sep-22 23:33N 44°35' E 037°57'0 0.0
2014-Sep-22 22:33N 44°35' E 037°57'0 0.0
2014-Sep-22 21:32N 44°35' E 037°57'0 0.0
2014-Sep-22 20:32N 44°35' E 037°57'0 0.0
2014-Sep-22 19:31N 44°35' E 037°57'0 0.0
2014-Sep-22 18:31N 44°35' E 037°57'0 0.0
2014-Sep-22 17:31N 44°35' E 037°57'0 0.0
2014-Sep-22 16:33N 44°35' E 037°57'0 0.0
2014-Sep-22 15:27N 44°35' E 037°57'0 0.0
2014-Sep-22 14:32N 44°35' E 037°57'0 0.0
2014-Sep-22 13:32N 44°35' E 037°57'0 0.0
2014-Sep-22 12:31N 44°35' E 037°57'0 0.0
2014-Sep-22 11:31N 44°35' E 037°57'0 0.0
2014-Sep-22 10:31N 44°35' E 037°57'0 0.0
2014-Sep-22 09:32N 44°35' E 037°57'0 0.0
2014-Sep-22 08:28N 44°35' E 037°57'0 0.0
2014-Sep-22 07:31N 44°35' E 037°57'0 0.0
2014-Sep-22 06:31N 44°35' E 037°57'0 0.0
2014-Sep-22 05:33N 44°35' E 037°57'0 0.0
2014-Sep-22 04:33N 44°35' E 037°57'0 0.0
2014-Sep-22 03:32N 44°35' E 037°57'0 0.0
2014-Sep-22 02:32N 44°35' E 037°57'0 0.0
2014-Sep-22 01:31N 44°35' E 037°57'0 0.0
2014-Sep-22 00:31N 44°35' E 037°57'0 0.0
2014-Sep-21 23:34N 44°35' E 037°57'0 0.0
2014-Sep-21 22:33N 44°35' E 037°57'0 0.0
2014-Sep-21 21:33N 44°35' E 037°57'0 0.0
2014-Sep-21 20:32N 44°35' E 037°57'0 0.0
2014-Sep-21 19:32N 44°35' E 037°57'0 0.0
2014-Sep-21 18:31N 44°35' E 037°57'0 0.0
2014-Sep-21 17:31N 44°35' E 037°57'0 0.0
2014-Sep-21 16:33N 44°35' E 037°57'0 0.0
2014-Sep-21 15:33N 44°35' E 037°57'0 0.0
2014-Sep-21 14:33N 44°35' E 037°57'0 0.0
2014-Sep-21 13:32N 44°35' E 037°57'0 0.0
2014-Sep-21 12:33N 44°35' E 037°57'0 0.0
2014-Sep-21 11:33N 44°35' E 037°57'0 0.0
2014-Sep-21 10:32N 44°35' E 037°57'0 0.1
2014-Sep-21 09:32N 44°35' E 037°57'0 0.0
2014-Sep-21 08:32N 44°35' E 037°57'0 0.1
2014-Sep-21 07:29N 44°35' E 037°57'0 0.0
2014-Sep-21 06:31N 44°35' E 037°57'0 0.0
2014-Sep-21 05:28N 44°35' E 037°57'0 0.0
2014-Sep-21 04:33N 44°35' E 037°57'0 0.0
2014-Sep-21 03:33N 44°35' E 037°57'0 0.0
2014-Sep-21 02:33N 44°35' E 037°57'0 0.0
2014-Sep-21 01:32N 44°35' E 037°57'5 5.1
2014-Sep-21 00:33N 44°32' E 037°52'1312.9
2014-Sep-20 23:32N 44°25' E 037°36'  

Dump ship's entire track history